sensor_id;sensor_type;location;lat;lon;timestamp;P1;durP1;ratioP1;P2;durP2;ratioP2
37645;SDS011;23489;49.600;6.138;2023-07-09T00:02:13;7.15;;;5.50;;
37645;SDS011;23489;49.600;6.138;2023-07-09T00:04:39;7.90;;;5.50;;
37645;SDS011;23489;49.600;6.138;2023-07-09T00:07:08;9.02;;;6.00;;
37645;SDS011;23489;49.600;6.138;2023-07-09T00:09:40;9.13;;;5.68;;
37645;SDS011;23489;49.600;6.138;2023-07-09T00:12:07;7.40;;;5.60;;
37645;SDS011;23489;49.600;6.138;2023-07-09T00:14:41;9.50;;;6.03;;
37645;SDS011;23489;49.600;6.138;2023-07-09T00:17:26;8.55;;;5.47;;
37645;SDS011;23489;49.600;6.138;2023-07-09T00:19:55;7.10;;;5.22;;
37645;SDS011;23489;49.600;6.138;2023-07-09T00:22:21;11.00;;;7.40;;
37645;SDS011;23489;49.600;6.138;2023-07-09T00:24:49;14.65;;;9.88;;
37645;SDS011;23489;49.600;6.138;2023-07-09T00:27:27;8.82;;;6.15;;
37645;SDS011;23489;49.600;6.138;2023-07-09T00:29:55;9.27;;;5.43;;
37645;SDS011;23489;49.600;6.138;2023-07-09T00:32:21;9.70;;;6.27;;
37645;SDS011;23489;49.600;6.138;2023-07-09T00:34:47;7.00;;;5.40;;
37645;SDS011;23489;49.600;6.138;2023-07-09T00:37:18;7.50;;;5.30;;
37645;SDS011;23489;49.600;6.138;2023-07-09T00:39:46;8.13;;;5.80;;
37645;SDS011;23489;49.600;6.138;2023-07-09T00:42:13;7.68;;;5.57;;
37645;SDS011;23489;49.600;6.138;2023-07-09T00:44:44;8.07;;;5.15;;
37645;SDS011;23489;49.600;6.138;2023-07-09T00:47:21;7.30;;;5.33;;
37645;SDS011;23489;49.600;6.138;2023-07-09T00:50:00;8.40;;;5.80;;
37645;SDS011;23489;49.600;6.138;2023-07-09T00:52:46;8.63;;;5.57;;
37645;SDS011;23489;49.600;6.138;2023-07-09T00:55:20;9.85;;;5.68;;
37645;SDS011;23489;49.600;6.138;2023-07-09T00:57:55;8.55;;;6.00;;
37645;SDS011;23489;49.600;6.138;2023-07-09T01:00:27;8.80;;;6.37;;
37645;SDS011;23489;49.600;6.138;2023-07-09T01:03:01;7.53;;;6.07;;
37645;SDS011;23489;49.600;6.138;2023-07-09T01:05:28;10.90;;;6.00;;
37645;SDS011;23489;49.600;6.138;2023-07-09T01:07:55;8.50;;;5.97;;
37645;SDS011;23489;49.600;6.138;2023-07-09T01:10:23;9.43;;;6.30;;
37645;SDS011;23489;49.600;6.138;2023-07-09T01:12:49;7.22;;;5.60;;
37645;SDS011;23489;49.600;6.138;2023-07-09T01:15:16;8.52;;;6.03;;
37645;SDS011;23489;49.600;6.138;2023-07-09T01:17:42;7.10;;;5.50;;
37645;SDS011;23489;49.600;6.138;2023-07-09T01:20:14;9.10;;;5.90;;
37645;SDS011;23489;49.600;6.138;2023-07-09T01:22:41;6.90;;;5.63;;
37645;SDS011;23489;49.600;6.138;2023-07-09T01:25:07;8.43;;;5.90;;
37645;SDS011;23489;49.600;6.138;2023-07-09T01:27:36;7.50;;;5.40;;
37645;SDS011;23489;49.600;6.138;2023-07-09T01:30:12;8.10;;;5.60;;
37645;SDS011;23489;49.600;6.138;2023-07-09T01:32:43;7.30;;;5.75;;
37645;SDS011;23489;49.600;6.138;2023-07-09T01:35:11;8.82;;;5.82;;
37645;SDS011;23489;49.600;6.138;2023-07-09T01:37:40;8.38;;;5.47;;
37645;SDS011;23489;49.600;6.138;2023-07-09T01:40:07;6.88;;;5.13;;
37645;SDS011;23489;49.600;6.138;2023-07-09T01:42:35;7.43;;;5.30;;
37645;SDS011;23489;49.600;6.138;2023-07-09T01:45:04;8.23;;;5.50;;
37645;SDS011;23489;49.600;6.138;2023-07-09T01:47:31;7.13;;;5.32;;
37645;SDS011;23489;49.600;6.138;2023-07-09T01:49:58;7.38;;;5.25;;
37645;SDS011;23489;49.600;6.138;2023-07-09T01:52:28;8.15;;;5.72;;
37645;SDS011;23489;49.600;6.138;2023-07-09T01:54:56;6.70;;;5.18;;
37645;SDS011;23489;49.600;6.138;2023-07-09T01:57:24;8.48;;;5.65;;
37645;SDS011;23489;49.600;6.138;2023-07-09T01:59:58;7.95;;;5.70;;
37645;SDS011;23489;49.600;6.138;2023-07-09T02:02:25;7.75;;;5.45;;
37645;SDS011;23489;49.600;6.138;2023-07-09T02:04:55;7.75;;;5.63;;
37645;SDS011;23489;49.600;6.138;2023-07-09T02:07:21;7.93;;;5.55;;
37645;SDS011;23489;49.600;6.138;2023-07-09T02:09:48;8.07;;;5.35;;
37645;SDS011;23489;49.600;6.138;2023-07-09T02:12:15;7.00;;;5.70;;
37645;SDS011;23489;49.600;6.138;2023-07-09T02:14:41;7.90;;;5.20;;
37645;SDS011;23489;49.600;6.138;2023-07-09T02:17:08;7.00;;;5.40;;
37645;SDS011;23489;49.600;6.138;2023-07-09T02:19:35;7.13;;;5.45;;
37645;SDS011;23489;49.600;6.138;2023-07-09T02:22:01;6.90;;;5.43;;
37645;SDS011;23489;49.600;6.138;2023-07-09T02:24:27;7.85;;;5.40;;
37645;SDS011;23489;49.600;6.138;2023-07-09T02:27:03;7.47;;;4.97;;
37645;SDS011;23489;49.600;6.138;2023-07-09T02:29:31;7.25;;;5.10;;
37645;SDS011;23489;49.600;6.138;2023-07-09T02:31:57;7.88;;;5.20;;
37645;SDS011;23489;49.600;6.138;2023-07-09T02:34:25;8.45;;;5.28;;
37645;SDS011;23489;49.600;6.138;2023-07-09T02:36:52;7.35;;;5.43;;
37645;SDS011;23489;49.600;6.138;2023-07-09T02:39:20;6.82;;;5.30;;
37645;SDS011;23489;49.600;6.138;2023-07-09T02:41:46;6.43;;;4.80;;
37645;SDS011;23489;49.600;6.138;2023-07-09T02:44:12;7.07;;;4.97;;
37645;SDS011;23489;49.600;6.138;2023-07-09T02:46:38;8.73;;;5.53;;
37645;SDS011;23489;49.600;6.138;2023-07-09T02:49:04;7.40;;;5.23;;
37645;SDS011;23489;49.600;6.138;2023-07-09T02:51:32;10.32;;;5.30;;
37645;SDS011;23489;49.600;6.138;2023-07-09T02:53:59;8.05;;;4.93;;
37645;SDS011;23489;49.600;6.138;2023-07-09T02:56:27;8.25;;;5.35;;
37645;SDS011;23489;49.600;6.138;2023-07-09T02:58:53;6.20;;;5.10;;
37645;SDS011;23489;49.600;6.138;2023-07-09T03:01:18;7.47;;;4.95;;
37645;SDS011;23489;49.600;6.138;2023-07-09T03:03:50;7.80;;;5.00;;
37645;SDS011;23489;49.600;6.138;2023-07-09T03:06:18;7.37;;;5.00;;
37645;SDS011;23489;49.600;6.138;2023-07-09T03:08:45;7.32;;;5.45;;
37645;SDS011;23489;49.600;6.138;2023-07-09T03:11:12;7.10;;;5.43;;
37645;SDS011;23489;49.600;6.138;2023-07-09T03:13:38;8.15;;;5.13;;
37645;SDS011;23489;49.600;6.138;2023-07-09T03:16:04;7.60;;;5.13;;
37645;SDS011;23489;49.600;6.138;2023-07-09T03:18:30;7.37;;;4.90;;
37645;SDS011;23489;49.600;6.138;2023-07-09T03:20:56;6.35;;;5.13;;
37645;SDS011;23489;49.600;6.138;2023-07-09T03:23:23;7.35;;;5.25;;
37645;SDS011;23489;49.600;6.138;2023-07-09T03:25:49;7.30;;;5.22;;
37645;SDS011;23489;49.600;6.138;2023-07-09T03:28:14;7.47;;;5.10;;
37645;SDS011;23489;49.600;6.138;2023-07-09T03:30:41;7.30;;;5.60;;
37645;SDS011;23489;49.600;6.138;2023-07-09T03:33:08;6.88;;;5.40;;
37645;SDS011;23489;49.600;6.138;2023-07-09T03:35:34;6.65;;;5.50;;
37645;SDS011;23489;49.600;6.138;2023-07-09T03:38:01;7.45;;;5.10;;
37645;SDS011;23489;49.600;6.138;2023-07-09T03:40:27;6.07;;;5.20;;
37645;SDS011;23489;49.600;6.138;2023-07-09T03:42:53;7.32;;;5.05;;
37645;SDS011;23489;49.600;6.138;2023-07-09T03:45:18;8.02;;;4.95;;
37645;SDS011;23489;49.600;6.138;2023-07-09T03:47:44;7.15;;;5.18;;
37645;SDS011;23489;49.600;6.138;2023-07-09T03:50:09;7.07;;;4.80;;
37645;SDS011;23489;49.600;6.138;2023-07-09T03:52:36;7.95;;;4.80;;
37645;SDS011;23489;49.600;6.138;2023-07-09T03:55:02;6.90;;;5.07;;
37645;SDS011;23489;49.600;6.138;2023-07-09T03:57:29;6.28;;;4.50;;
37645;SDS011;23489;49.600;6.138;2023-07-09T03:59:55;7.43;;;4.90;;
37645;SDS011;23489;49.600;6.138;2023-07-09T04:02:21;6.80;;;4.95;;
37645;SDS011;23489;49.600;6.138;2023-07-09T04:04:47;8.38;;;5.20;;
37645;SDS011;23489;49.600;6.138;2023-07-09T04:07:13;6.97;;;5.00;;
37645;SDS011;23489;49.600;6.138;2023-07-09T04:09:38;6.60;;;4.90;;
37645;SDS011;23489;49.600;6.138;2023-07-09T04:12:04;7.63;;;5.35;;
37645;SDS011;23489;49.600;6.138;2023-07-09T04:14:30;7.07;;;5.05;;
37645;SDS011;23489;49.600;6.138;2023-07-09T04:16:56;6.63;;;4.97;;
37645;SDS011;23489;49.600;6.138;2023-07-09T04:19:22;7.38;;;4.60;;
37645;SDS011;23489;49.600;6.138;2023-07-09T04:21:48;6.03;;;5.10;;
37645;SDS011;23489;49.600;6.138;2023-07-09T04:24:15;7.38;;;5.15;;
37645;SDS011;23489;49.600;6.138;2023-07-09T04:26:42;7.43;;;5.43;;
37645;SDS011;23489;49.600;6.138;2023-07-09T04:32:26;6.40;;;5.23;;
37645;SDS011;23489;49.600;6.138;2023-07-09T04:34:52;8.25;;;4.68;;
37645;SDS011;23489;49.600;6.138;2023-07-09T04:37:18;6.17;;;4.90;;
37645;SDS011;23489;49.600;6.138;2023-07-09T04:39:44;6.63;;;4.93;;
37645;SDS011;23489;49.600;6.138;2023-07-09T04:42:13;6.17;;;4.63;;
37645;SDS011;23489;49.600;6.138;2023-07-09T04:44:41;5.88;;;4.50;;
37645;SDS011;23489;49.600;6.138;2023-07-09T04:47:07;6.22;;;4.60;;
37645;SDS011;23489;49.600;6.138;2023-07-09T04:49:33;8.10;;;5.07;;
37645;SDS011;23489;49.600;6.138;2023-07-09T04:51:59;7.07;;;5.03;;
37645;SDS011;23489;49.600;6.138;2023-07-09T04:54:26;6.13;;;4.37;;
37645;SDS011;23489;49.600;6.138;2023-07-09T04:56:52;5.82;;;4.65;;
37645;SDS011;23489;49.600;6.138;2023-07-09T04:59:18;6.07;;;4.50;;
37645;SDS011;23489;49.600;6.138;2023-07-09T05:01:44;6.63;;;4.63;;
37645;SDS011;23489;49.600;6.138;2023-07-09T05:04:10;6.57;;;4.87;;
37645;SDS011;23489;49.600;6.138;2023-07-09T05:06:36;9.15;;;5.28;;
37645;SDS011;23489;49.600;6.138;2023-07-09T05:09:02;7.87;;;4.80;;
37645;SDS011;23489;49.600;6.138;2023-07-09T05:11:27;7.45;;;4.55;;
37645;SDS011;23489;49.600;6.138;2023-07-09T05:13:53;6.43;;;4.45;;
37645;SDS011;23489;49.600;6.138;2023-07-09T05:16:19;5.68;;;4.50;;
37645;SDS011;23489;49.600;6.138;2023-07-09T05:18:45;8.20;;;4.72;;
37645;SDS011;23489;49.600;6.138;2023-07-09T05:21:11;6.30;;;4.60;;
37645;SDS011;23489;49.600;6.138;2023-07-09T05:23:37;6.20;;;4.60;;
37645;SDS011;23489;49.600;6.138;2023-07-09T05:26:03;5.75;;;4.50;;
37645;SDS011;23489;49.600;6.138;2023-07-09T05:28:29;7.90;;;5.18;;
37645;SDS011;23489;49.600;6.138;2023-07-09T05:30:55;6.03;;;4.90;;
37645;SDS011;23489;49.600;6.138;2023-07-09T05:33:21;6.70;;;4.47;;
37645;SDS011;23489;49.600;6.138;2023-07-09T05:35:47;5.83;;;4.60;;
37645;SDS011;23489;49.600;6.138;2023-07-09T05:38:13;7.45;;;4.70;;
37645;SDS011;23489;49.600;6.138;2023-07-09T05:40:40;7.68;;;4.57;;
37645;SDS011;23489;49.600;6.138;2023-07-09T05:43:06;6.07;;;4.40;;
37645;SDS011;23489;49.600;6.138;2023-07-09T05:45:31;8.13;;;4.47;;
37645;SDS011;23489;49.600;6.138;2023-07-09T05:47:57;8.67;;;4.60;;
37645;SDS011;23489;49.600;6.138;2023-07-09T05:50:24;7.13;;;4.53;;
37645;SDS011;23489;49.600;6.138;2023-07-09T05:52:50;6.25;;;4.35;;
37645;SDS011;23489;49.600;6.138;2023-07-09T05:55:15;8.97;;;4.40;;
37645;SDS011;23489;49.600;6.138;2023-07-09T05:57:41;6.37;;;4.73;;
37645;SDS011;23489;49.600;6.138;2023-07-09T06:00:07;6.70;;;4.63;;
37645;SDS011;23489;49.600;6.138;2023-07-09T06:02:39;6.38;;;4.20;;
37645;SDS011;23489;49.600;6.138;2023-07-09T06:05:05;8.25;;;4.63;;
37645;SDS011;23489;49.600;6.138;2023-07-09T06:07:34;6.25;;;4.38;;
37645;SDS011;23489;49.600;6.138;2023-07-09T06:10:00;8.13;;;4.43;;
37645;SDS011;23489;49.600;6.138;2023-07-09T06:12:25;7.03;;;4.38;;
37645;SDS011;23489;49.600;6.138;2023-07-09T06:14:51;6.63;;;4.20;;
37645;SDS011;23489;49.600;6.138;2023-07-09T06:17:16;7.13;;;4.30;;
37645;SDS011;23489;49.600;6.138;2023-07-09T06:19:42;8.57;;;4.17;;
37645;SDS011;23489;49.600;6.138;2023-07-09T06:22:08;8.02;;;4.50;;
37645;SDS011;23489;49.600;6.138;2023-07-09T06:24:34;7.65;;;4.10;;
37645;SDS011;23489;49.600;6.138;2023-07-09T06:26:59;5.53;;;4.03;;
37645;SDS011;23489;49.600;6.138;2023-07-09T06:29:25;6.40;;;3.73;;
37645;SDS011;23489;49.600;6.138;2023-07-09T06:31:51;5.00;;;3.90;;
37645;SDS011;23489;49.600;6.138;2023-07-09T06:34:16;6.17;;;4.03;;
37645;SDS011;23489;49.600;6.138;2023-07-09T06:36:42;7.30;;;4.07;;
37645;SDS011;23489;49.600;6.138;2023-07-09T06:39:08;6.38;;;4.57;;
37645;SDS011;23489;49.600;6.138;2023-07-09T06:41:33;5.40;;;3.80;;
37645;SDS011;23489;49.600;6.138;2023-07-09T06:44:08;7.40;;;4.13;;
37645;SDS011;23489;49.600;6.138;2023-07-09T06:46:34;7.03;;;4.20;;
37645;SDS011;23489;49.600;6.138;2023-07-09T06:49:01;5.90;;;3.97;;
37645;SDS011;23489;49.600;6.138;2023-07-09T06:51:27;4.60;;;3.97;;
37645;SDS011;23489;49.600;6.138;2023-07-09T06:53:53;5.10;;;3.90;;
37645;SDS011;23489;49.600;6.138;2023-07-09T06:56:18;5.55;;;3.88;;
37645;SDS011;23489;49.600;6.138;2023-07-09T06:58:45;6.60;;;4.30;;
37645;SDS011;23489;49.600;6.138;2023-07-09T07:01:11;7.63;;;4.00;;
37645;SDS011;23489;49.600;6.138;2023-07-09T07:03:37;10.33;;;4.77;;
37645;SDS011;23489;49.600;6.138;2023-07-09T07:06:03;5.07;;;3.67;;
37645;SDS011;23489;49.600;6.138;2023-07-09T07:08:30;6.15;;;3.85;;
37645;SDS011;23489;49.600;6.138;2023-07-09T07:10:58;6.32;;;4.10;;
37645;SDS011;23489;49.600;6.138;2023-07-09T07:13:32;5.20;;;3.85;;
37645;SDS011;23489;49.600;6.138;2023-07-09T07:16:00;6.60;;;3.95;;
37645;SDS011;23489;49.600;6.138;2023-07-09T07:18:27;6.72;;;3.78;;
37645;SDS011;23489;49.600;6.138;2023-07-09T07:20:53;4.85;;;3.63;;
37645;SDS011;23489;49.600;6.138;2023-07-09T07:23:18;5.72;;;3.80;;
37645;SDS011;23489;49.600;6.138;2023-07-09T07:25:47;4.93;;;3.80;;
37645;SDS011;23489;49.600;6.138;2023-07-09T07:28:13;5.80;;;4.23;;
37645;SDS011;23489;49.600;6.138;2023-07-09T07:30:39;6.05;;;3.97;;
37645;SDS011;23489;49.600;6.138;2023-07-09T07:33:05;7.28;;;4.10;;
37645;SDS011;23489;49.600;6.138;2023-07-09T07:35:31;5.27;;;3.90;;
37645;SDS011;23489;49.600;6.138;2023-07-09T07:37:57;5.57;;;3.80;;
37645;SDS011;23489;49.600;6.138;2023-07-09T07:40:22;5.70;;;3.67;;
37645;SDS011;23489;49.600;6.138;2023-07-09T07:42:48;4.60;;;3.60;;
37645;SDS011;23489;49.600;6.138;2023-07-09T07:45:13;6.07;;;3.60;;
37645;SDS011;23489;49.600;6.138;2023-07-09T07:47:40;5.20;;;3.67;;
37645;SDS011;23489;49.600;6.138;2023-07-09T07:50:18;5.27;;;3.43;;
37645;SDS011;23489;49.600;6.138;2023-07-09T07:52:44;5.35;;;3.53;;
37645;SDS011;23489;49.600;6.138;2023-07-09T07:55:09;5.70;;;3.50;;
37645;SDS011;23489;49.600;6.138;2023-07-09T07:57:35;5.27;;;3.60;;
37645;SDS011;23489;49.600;6.138;2023-07-09T08:00:00;4.38;;;3.53;;
37645;SDS011;23489;49.600;6.138;2023-07-09T08:02:37;5.03;;;3.60;;
37645;SDS011;23489;49.600;6.138;2023-07-09T08:05:03;6.15;;;4.03;;
37645;SDS011;23489;49.600;6.138;2023-07-09T08:07:30;4.20;;;3.70;;
37645;SDS011;23489;49.600;6.138;2023-07-09T08:09:56;5.00;;;3.60;;
37645;SDS011;23489;49.600;6.138;2023-07-09T08:12:21;5.00;;;3.70;;
37645;SDS011;23489;49.600;6.138;2023-07-09T08:14:47;5.40;;;3.70;;
37645;SDS011;23489;49.600;6.138;2023-07-09T08:17:12;5.38;;;3.78;;
37645;SDS011;23489;49.600;6.138;2023-07-09T08:19:48;4.70;;;3.60;;
37645;SDS011;23489;49.600;6.138;2023-07-09T08:22:15;6.93;;;3.80;;
37645;SDS011;23489;49.600;6.138;2023-07-09T08:24:42;5.82;;;3.55;;
37645;SDS011;23489;49.600;6.138;2023-07-09T08:27:08;5.93;;;3.60;;
37645;SDS011;23489;49.600;6.138;2023-07-09T08:29:34;5.60;;;3.60;;
37645;SDS011;23489;49.600;6.138;2023-07-09T08:32:00;4.35;;;3.90;;
37645;SDS011;23489;49.600;6.138;2023-07-09T08:34:26;4.83;;;3.60;;
37645;SDS011;23489;49.600;6.138;2023-07-09T08:36:52;4.85;;;3.40;;
37645;SDS011;23489;49.600;6.138;2023-07-09T08:39:18;4.32;;;3.35;;
37645;SDS011;23489;49.600;6.138;2023-07-09T08:50:12;5.07;;;3.67;;
37645;SDS011;23489;49.600;6.138;2023-07-09T08:52:41;5.30;;;3.87;;
37645;SDS011;23489;49.600;6.138;2023-07-09T08:55:10;4.82;;;3.10;;
37645;SDS011;23489;49.600;6.138;2023-07-09T08:57:42;3.60;;;3.13;;
37645;SDS011;23489;49.600;6.138;2023-07-09T11:01:58;6.80;;;3.83;;
